sensor_id;sensor_type;location;lat;lon;timestamp;temperature;humidity
26954;DHT22;14508;50.924;11.600;2022-08-21T00:02:13;17.90;99.90
26954;DHT22;14508;50.924;11.600;2022-08-21T00:04:40;17.90;99.90
26954;DHT22;14508;50.924;11.600;2022-08-21T00:07:07;18.00;99.90
26954;DHT22;14508;50.924;11.600;2022-08-21T00:09:33;18.00;99.90
26954;DHT22;14508;50.924;11.600;2022-08-21T00:12:00;18.00;99.90
26954;DHT22;14508;50.924;11.600;2022-08-21T00:14:27;18.00;99.90
26954;DHT22;14508;50.924;11.600;2022-08-21T00:16:53;18.00;99.90
26954;DHT22;14508;50.924;11.600;2022-08-21T00:19:21;18.00;99.90
26954;DHT22;14508;50.924;11.600;2022-08-21T00:21:50;18.00;99.90
26954;DHT22;14508;50.924;11.600;2022-08-21T00:24:17;18.00;99.90
26954;DHT22;14508;50.924;11.600;2022-08-21T00:26:43;18.00;99.90
26954;DHT22;14508;50.924;11.600;2022-08-21T00:29:10;18.00;99.90
26954;DHT22;14508;50.924;11.600;2022-08-21T00:31:37;18.00;99.90
26954;DHT22;14508;50.924;11.600;2022-08-21T00:34:04;18.00;99.90
26954;DHT22;14508;50.924;11.600;2022-08-21T00:36:32;18.00;99.90
26954;DHT22;14508;50.924;11.600;2022-08-21T00:38:58;18.00;99.90
26954;DHT22;14508;50.924;11.600;2022-08-21T00:41:26;18.00;99.90
26954;DHT22;14508;50.924;11.600;2022-08-21T00:43:54;17.90;99.90
26954;DHT22;14508;50.924;11.600;2022-08-21T00:46:21;17.90;99.90
26954;DHT22;14508;50.924;11.600;2022-08-21T00:48:48;17.90;99.90
26954;DHT22;14508;50.924;11.600;2022-08-21T00:51:17;17.90;99.90
26954;DHT22;14508;50.924;11.600;2022-08-21T00:53:53;17.80;99.90
26954;DHT22;14508;50.924;11.600;2022-08-21T00:56:21;17.80;99.90
26954;DHT22;14508;50.924;11.600;2022-08-21T00:58:48;17.80;99.90
26954;DHT22;14508;50.924;11.600;2022-08-21T01:01:15;17.80;99.90
26954;DHT22;14508;50.924;11.600;2022-08-21T01:03:42;17.80;99.90
26954;DHT22;14508;50.924;11.600;2022-08-21T01:06:09;17.70;99.90
26954;DHT22;14508;50.924;11.600;2022-08-21T01:08:36;17.70;99.90
26954;DHT22;14508;50.924;11.600;2022-08-21T01:11:05;17.60;99.90
26954;DHT22;14508;50.924;11.600;2022-08-21T01:13:35;17.60;99.90
26954;DHT22;14508;50.924;11.600;2022-08-21T01:16:08;17.60;99.90
26954;DHT22;14508;50.924;11.600;2022-08-21T01:18:35;17.60;99.90
26954;DHT22;14508;50.924;11.600;2022-08-21T01:21:09;17.50;99.90
26954;DHT22;14508;50.924;11.600;2022-08-21T01:23:38;17.50;99.90
26954;DHT22;14508;50.924;11.600;2022-08-21T01:26:07;17.50;99.90
26954;DHT22;14508;50.924;11.600;2022-08-21T01:28:37;17.40;99.90
26954;DHT22;14508;50.924;11.600;2022-08-21T01:31:06;17.40;99.90
26954;DHT22;14508;50.924;11.600;2022-08-21T01:33:34;17.40;99.90
26954;DHT22;14508;50.924;11.600;2022-08-21T01:36:00;17.40;99.90
26954;DHT22;14508;50.924;11.600;2022-08-21T01:38:29;17.40;99.90
26954;DHT22;14508;50.924;11.600;2022-08-21T01:40:56;17.30;99.90
26954;DHT22;14508;50.924;11.600;2022-08-21T01:43:23;17.30;99.90
26954;DHT22;14508;50.924;11.600;2022-08-21T01:45:49;17.20;99.90
26954;DHT22;14508;50.924;11.600;2022-08-21T01:48:16;17.20;99.90
26954;DHT22;14508;50.924;11.600;2022-08-21T01:50:43;17.20;99.90
26954;DHT22;14508;50.924;11.600;2022-08-21T01:53:09;17.20;99.90
26954;DHT22;14508;50.924;11.600;2022-08-21T01:55:37;17.10;99.90
26954;DHT22;14508;50.924;11.600;2022-08-21T01:58:04;17.10;99.90
26954;DHT22;14508;50.924;11.600;2022-08-21T02:00:31;17.10;99.90
26954;DHT22;14508;50.924;11.600;2022-08-21T02:02:57;17.10;99.90
26954;DHT22;14508;50.924;11.600;2022-08-21T02:05:25;17.00;99.90
26954;DHT22;14508;50.924;11.600;2022-08-21T02:07:55;17.00;99.90
26954;DHT22;14508;50.924;11.600;2022-08-21T02:10:25;16.90;99.90
26954;DHT22;14508;50.924;11.600;2022-08-21T02:12:53;16.90;99.90
26954;DHT22;14508;50.924;11.600;2022-08-21T02:15:21;16.90;99.90
26954;DHT22;14508;50.924;11.600;2022-08-21T02:17:51;16.90;99.90
26954;DHT22;14508;50.924;11.600;2022-08-21T02:20:21;16.90;99.90
26954;DHT22;14508;50.924;11.600;2022-08-21T02:22:48;16.80;99.90
26954;DHT22;14508;50.924;11.600;2022-08-21T02:25:15;16.80;99.90
26954;DHT22;14508;50.924;11.600;2022-08-21T02:27:43;16.80;99.90
26954;DHT22;14508;50.924;11.600;2022-08-21T02:34:00;16.70;99.90
26954;DHT22;14508;50.924;11.600;2022-08-21T02:36:27;16.70;99.90
26954;DHT22;14508;50.924;11.600;2022-08-21T02:38:54;16.70;99.90
26954;DHT22;14508;50.924;11.600;2022-08-21T02:41:22;16.70;99.90
26954;DHT22;14508;50.924;11.600;2022-08-21T02:43:49;16.60;99.90
26954;DHT22;14508;50.924;11.600;2022-08-21T02:46:18;16.60;99.90
26954;DHT22;14508;50.924;11.600;2022-08-21T02:48:45;16.60;99.90
26954;DHT22;14508;50.924;11.600;2022-08-21T02:51:16;16.60;99.90
26954;DHT22;14508;50.924;11.600;2022-08-21T02:53:44;16.60;99.90
26954;DHT22;14508;50.924;11.600;2022-08-21T02:56:14;16.50;99.90
26954;DHT22;14508;50.924;11.600;2022-08-21T02:58:46;16.50;99.90
26954;DHT22;14508;50.924;11.600;2022-08-21T03:01:13;16.50;99.90
26954;DHT22;14508;50.924;11.600;2022-08-21T03:03:42;16.50;99.90
26954;DHT22;14508;50.924;11.600;2022-08-21T03:06:12;16.50;99.90
26954;DHT22;14508;50.924;11.600;2022-08-21T03:08:41;16.40;99.90
26954;DHT22;14508;50.924;11.600;2022-08-21T03:11:11;16.40;99.90
26954;DHT22;14508;50.924;11.600;2022-08-21T03:13:38;16.40;99.90
26954;DHT22;14508;50.924;11.600;2022-08-21T03:16:05;16.40;99.90
26954;DHT22;14508;50.924;11.600;2022-08-21T03:18:32;16.40;99.90
26954;DHT22;14508;50.924;11.600;2022-08-21T03:20:59;16.40;99.90
26954;DHT22;14508;50.924;11.600;2022-08-21T03:23:26;16.40;99.90
26954;DHT22;14508;50.924;11.600;2022-08-21T03:25:54;16.40;99.90
26954;DHT22;14508;50.924;11.600;2022-08-21T03:28:21;16.40;99.90
26954;DHT22;14508;50.924;11.600;2022-08-21T03:30:49;16.40;99.90
26954;DHT22;14508;50.924;11.600;2022-08-21T03:33:16;16.40;99.90
26954;DHT22;14508;50.924;11.600;2022-08-21T03:35:46;16.40;99.90
26954;DHT22;14508;50.924;11.600;2022-08-21T03:38:14;16.40;99.90
26954;DHT22;14508;50.924;11.600;2022-08-21T03:40:42;16.30;99.90
26954;DHT22;14508;50.924;11.600;2022-08-21T03:43:10;16.30;99.90
26954;DHT22;14508;50.924;11.600;2022-08-21T03:45:38;16.40;99.90
26954;DHT22;14508;50.924;11.600;2022-08-21T03:48:05;16.40;99.90
26954;DHT22;14508;50.924;11.600;2022-08-21T03:50:34;16.40;99.90
26954;DHT22;14508;50.924;11.600;2022-08-21T03:53:02;16.40;99.90
26954;DHT22;14508;50.924;11.600;2022-08-21T03:55:29;16.50;99.90
26954;DHT22;14508;50.924;11.600;2022-08-21T03:57:56;16.50;99.90
26954;DHT22;14508;50.924;11.600;2022-08-21T04:00:24;16.40;99.90
26954;DHT22;14508;50.924;11.600;2022-08-21T04:02:51;16.50;99.90
26954;DHT22;14508;50.924;11.600;2022-08-21T04:05:18;16.50;99.90
26954;DHT22;14508;50.924;11.600;2022-08-21T04:07:54;16.50;99.90
26954;DHT22;14508;50.924;11.600;2022-08-21T04:10:20;16.60;99.90
26954;DHT22;14508;50.924;11.600;2022-08-21T04:12:47;16.60;99.90
26954;DHT22;14508;50.924;11.600;2022-08-21T04:15:14;16.60;99.90
26954;DHT22;14508;50.924;11.600;2022-08-21T04:17:42;16.70;99.90
26954;DHT22;14508;50.924;11.600;2022-08-21T04:20:09;16.70;99.90
26954;DHT22;14508;50.924;11.600;2022-08-21T04:22:36;16.70;99.90
26954;DHT22;14508;50.924;11.600;2022-08-21T04:25:03;16.70;99.90
26954;DHT22;14508;50.924;11.600;2022-08-21T04:27:30;16.80;99.90
26954;DHT22;14508;50.924;11.600;2022-08-21T04:29:57;16.80;99.90
26954;DHT22;14508;50.924;11.600;2022-08-21T04:32:26;16.80;99.90
26954;DHT22;14508;50.924;11.600;2022-08-21T04:34:59;16.80;99.90
26954;DHT22;14508;50.924;11.600;2022-08-21T04:37:26;16.90;99.90
26954;DHT22;14508;50.924;11.600;2022-08-21T04:39:54;16.90;99.90
26954;DHT22;14508;50.924;11.600;2022-08-21T04:42:22;16.90;99.90
26954;DHT22;14508;50.924;11.600;2022-08-21T04:44:49;16.90;99.90
26954;DHT22;14508;50.924;11.600;2022-08-21T04:47:17;17.00;99.90
26954;DHT22;14508;50.924;11.600;2022-08-21T04:49:44;17.00;99.90
26954;DHT22;14508;50.924;11.600;2022-08-21T04:52:14;17.00;99.90
26954;DHT22;14508;50.924;11.600;2022-08-21T04:54:44;17.00;99.90
26954;DHT22;14508;50.924;11.600;2022-08-21T04:57:12;17.00;99.90
26954;DHT22;14508;50.924;11.600;2022-08-21T04:59:42;17.00;99.90
26954;DHT22;14508;50.924;11.600;2022-08-21T05:02:09;17.00;99.90
26954;DHT22;14508;50.924;11.600;2022-08-21T05:04:41;17.00;99.90
26954;DHT22;14508;50.924;11.600;2022-08-21T05:07:14;17.00;99.90
26954;DHT22;14508;50.924;11.600;2022-08-21T05:09:42;17.00;99.90
26954;DHT22;14508;50.924;11.600;2022-08-21T05:12:09;17.00;99.90
26954;DHT22;14508;50.924;11.600;2022-08-21T05:14:36;17.00;99.90
26954;DHT22;14508;50.924;11.600;2022-08-21T05:17:03;17.10;99.90
26954;DHT22;14508;50.924;11.600;2022-08-21T05:19:31;17.10;99.90
26954;DHT22;14508;50.924;11.600;2022-08-21T05:21:57;17.10;99.90
26954;DHT22;14508;50.924;11.600;2022-08-21T05:24:25;17.20;99.90
26954;DHT22;14508;50.924;11.600;2022-08-21T05:26:52;17.20;99.90
26954;DHT22;14508;50.924;11.600;2022-08-21T05:29:19;17.30;99.90
26954;DHT22;14508;50.924;11.600;2022-08-21T05:31:47;17.30;99.90
26954;DHT22;14508;50.924;11.600;2022-08-21T05:34:17;17.30;99.90
26954;DHT22;14508;50.924;11.600;2022-08-21T05:36:44;17.30;99.90
26954;DHT22;14508;50.924;11.600;2022-08-21T05:39:11;17.30;99.90
26954;DHT22;14508;50.924;11.600;2022-08-21T05:41:40;17.40;99.90
26954;DHT22;14508;50.924;11.600;2022-08-21T05:44:06;17.40;99.90
26954;DHT22;14508;50.924;11.600;2022-08-21T05:46:33;17.40;99.90
26954;DHT22;14508;50.924;11.600;2022-08-21T05:49:00;17.40;99.90
26954;DHT22;14508;50.924;11.600;2022-08-21T05:51:26;17.40;99.90
26954;DHT22;14508;50.924;11.600;2022-08-21T05:53:53;17.50;99.90
26954;DHT22;14508;50.924;11.600;2022-08-21T05:56:20;17.50;99.90
26954;DHT22;14508;50.924;11.600;2022-08-21T05:58:48;17.40;99.90
26954;DHT22;14508;50.924;11.600;2022-08-21T06:01:14;17.40;99.90
26954;DHT22;14508;50.924;11.600;2022-08-21T06:03:41;17.40;99.90
26954;DHT22;14508;50.924;11.600;2022-08-21T06:06:08;17.40;99.90
26954;DHT22;14508;50.924;11.600;2022-08-21T06:08:35;17.40;99.90
26954;DHT22;14508;50.924;11.600;2022-08-21T06:11:04;17.50;99.90
26954;DHT22;14508;50.924;11.600;2022-08-21T06:13:32;17.40;99.90
26954;DHT22;14508;50.924;11.600;2022-08-21T06:16:06;17.40;99.90
26954;DHT22;14508;50.924;11.600;2022-08-21T06:18:34;17.40;99.90
26954;DHT22;14508;50.924;11.600;2022-08-21T06:21:01;17.40;99.90
26954;DHT22;14508;50.924;11.600;2022-08-21T06:23:27;17.40;99.90
26954;DHT22;14508;50.924;11.600;2022-08-21T06:25:54;17.40;99.90
26954;DHT22;14508;50.924;11.600;2022-08-21T06:28:21;17.50;99.90
26954;DHT22;14508;50.924;11.600;2022-08-21T06:30:47;17.60;99.90
26954;DHT22;14508;50.924;11.600;2022-08-21T06:33:15;17.70;99.90
26954;DHT22;14508;50.924;11.600;2022-08-21T06:35:42;17.80;99.90
26954;DHT22;14508;50.924;11.600;2022-08-21T06:38:09;17.90;99.90
26954;DHT22;14508;50.924;11.600;2022-08-21T06:40:38;18.10;99.90
26954;DHT22;14508;50.924;11.600;2022-08-21T06:43:07;18.10;99.90
26954;DHT22;14508;50.924;11.600;2022-08-21T06:45:33;18.10;99.90
26954;DHT22;14508;50.924;11.600;2022-08-21T06:48:00;18.10;99.90
26954;DHT22;14508;50.924;11.600;2022-08-21T06:50:29;18.10;99.90
26954;DHT22;14508;50.924;11.600;2022-08-21T06:53:00;18.20;99.90
26954;DHT22;14508;50.924;11.600;2022-08-21T06:55:27;18.20;99.90
26954;DHT22;14508;50.924;11.600;2022-08-21T06:57:54;18.20;99.90
26954;DHT22;14508;50.924;11.600;2022-08-21T07:00:21;18.20;99.90
26954;DHT22;14508;50.924;11.600;2022-08-21T07:02:48;18.10;99.90
26954;DHT22;14508;50.924;11.600;2022-08-21T07:05:14;18.10;99.90
26954;DHT22;14508;50.924;11.600;2022-08-21T07:07:43;18.20;99.90
26954;DHT22;14508;50.924;11.600;2022-08-21T07:10:09;18.20;99.90
26954;DHT22;14508;50.924;11.600;2022-08-21T07:12:36;18.20;99.90
26954;DHT22;14508;50.924;11.600;2022-08-21T07:15:05;18.20;99.90
26954;DHT22;14508;50.924;11.600;2022-08-21T07:17:32;18.30;99.90
26954;DHT22;14508;50.924;11.600;2022-08-21T07:19:58;18.40;99.90
26954;DHT22;14508;50.924;11.600;2022-08-21T07:22:25;18.60;99.90
26954;DHT22;14508;50.924;11.600;2022-08-21T07:24:54;18.70;99.90
26954;DHT22;14508;50.924;11.600;2022-08-21T07:27:21;18.80;99.90
26954;DHT22;14508;50.924;11.600;2022-08-21T07:29:48;18.80;99.90
26954;DHT22;14508;50.924;11.600;2022-08-21T07:32:15;18.80;99.90
26954;DHT22;14508;50.924;11.600;2022-08-21T07:34:42;18.80;99.90
26954;DHT22;14508;50.924;11.600;2022-08-21T07:37:08;18.90;99.90
26954;DHT22;14508;50.924;11.600;2022-08-21T07:39:35;19.00;99.90
26954;DHT22;14508;50.924;11.600;2022-08-21T07:42:04;19.10;99.90
26954;DHT22;14508;50.924;11.600;2022-08-21T07:44:30;19.20;99.90
26954;DHT22;14508;50.924;11.600;2022-08-21T07:46:57;19.40;99.90
26954;DHT22;14508;50.924;11.600;2022-08-21T07:49:23;19.50;99.90
26954;DHT22;14508;50.924;11.600;2022-08-21T07:51:50;19.70;99.90
26954;DHT22;14508;50.924;11.600;2022-08-21T07:54:17;19.70;99.90
26954;DHT22;14508;50.924;11.600;2022-08-21T07:56:44;19.80;99.90
26954;DHT22;14508;50.924;11.600;2022-08-21T07:59:12;19.90;99.90
26954;DHT22;14508;50.924;11.600;2022-08-21T08:01:39;19.90;99.90
26954;DHT22;14508;50.924;11.600;2022-08-21T08:04:05;20.10;99.90
26954;DHT22;14508;50.924;11.600;2022-08-21T08:06:32;20.10;99.90
26954;DHT22;14508;50.924;11.600;2022-08-21T08:08:59;20.20;99.90
26954;DHT22;14508;50.924;11.600;2022-08-21T08:11:28;20.30;99.90
26954;DHT22;14508;50.924;11.600;2022-08-21T08:13:55;20.30;99.90
26954;DHT22;14508;50.924;11.600;2022-08-21T08:16:24;20.40;99.90
26954;DHT22;14508;50.924;11.600;2022-08-21T08:18:50;20.40;99.90
26954;DHT22;14508;50.924;11.600;2022-08-21T08:21:18;20.40;99.90
26954;DHT22;14508;50.924;11.600;2022-08-21T08:23:46;20.40;99.90
26954;DHT22;14508;50.924;11.600;2022-08-21T08:26:13;20.50;99.90
26954;DHT22;14508;50.924;11.600;2022-08-21T08:28:41;20.50;99.90
26954;DHT22;14508;50.924;11.600;2022-08-21T08:31:08;20.50;99.90
26954;DHT22;14508;50.924;11.600;2022-08-21T08:33:36;20.40;99.90
26954;DHT22;14508;50.924;11.600;2022-08-21T08:36:03;20.40;99.90
26954;DHT22;14508;50.924;11.600;2022-08-21T08:38:29;20.50;99.90
26954;DHT22;14508;50.924;11.600;2022-08-21T08:41:01;20.50;99.90
26954;DHT22;14508;50.924;11.600;2022-08-21T08:43:29;20.60;99.90
26954;DHT22;14508;50.924;11.600;2022-08-21T08:46:03;20.60;99.90
26954;DHT22;14508;50.924;11.600;2022-08-21T08:48:39;20.70;99.90
26954;DHT22;14508;50.924;11.600;2022-08-21T08:51:11;20.70;99.90
26954;DHT22;14508;50.924;11.600;2022-08-21T08:53:47;20.70;99.90
26954;DHT22;14508;50.924;11.600;2022-08-21T08:56:15;20.80;99.90
26954;DHT22;14508;50.924;11.600;2022-08-21T08:58:44;20.90;99.90
26954;DHT22;14508;50.924;11.600;2022-08-21T09:01:18;21.00;99.90
26954;DHT22;14508;50.924;11.600;2022-08-21T09:03:47;21.10;99.90
26954;DHT22;14508;50.924;11.600;2022-08-21T09:06:28;21.10;99.90
26954;DHT22;14508;50.924;11.600;2022-08-21T09:09:09;21.10;99.90
26954;DHT22;14508;50.924;11.600;2022-08-21T09:11:44;21.10;99.90
26954;DHT22;14508;50.924;11.600;2022-08-21T09:14:19;21.20;99.90
26954;DHT22;14508;50.924;11.600;2022-08-21T09:16:55;21.20;99.90
26954;DHT22;14508;50.924;11.600;2022-08-21T09:19:46;21.30;99.90
26954;DHT22;14508;50.924;11.600;2022-08-21T09:22:21;21.40;99.90
26954;DHT22;14508;50.924;11.600;2022-08-21T09:24:59;21.50;99.90
26954;DHT22;14508;50.924;11.600;2022-08-21T09:27:29;21.60;99.90
26954;DHT22;14508;50.924;11.600;2022-08-21T09:29:57;21.70;99.90
26954;DHT22;14508;50.924;11.600;2022-08-21T09:32:26;21.80;99.90
26954;DHT22;14508;50.924;11.600;2022-08-21T09:35:00;22.00;99.90
26954;DHT22;14508;50.924;11.600;2022-08-21T09:37:28;22.10;99.90
26954;DHT22;14508;50.924;11.600;2022-08-21T09:39:56;22.10;99.90
26954;DHT22;14508;50.924;11.600;2022-08-21T09:42:25;22.10;99.90
26954;DHT22;14508;50.924;11.600;2022-08-21T09:45:08;22.20;99.90
26954;DHT22;14508;50.924;11.600;2022-08-21T09:47:35;22.30;98.90
26954;DHT22;14508;50.924;11.600;2022-08-21T09:50:12;22.30;96.60
26954;DHT22;14508;50.924;11.600;2022-08-21T09:52:48;22.30;96.00
26954;DHT22;14508;50.924;11.600;2022-08-21T09:55:19;22.30;93.80
26954;DHT22;14508;50.924;11.600;2022-08-21T09:58:04;22.40;93.10
26954;DHT22;14508;50.924;11.600;2022-08-21T10:00:33;22.50;94.00
26954;DHT22;14508;50.924;11.600;2022-08-21T10:03:13;22.60;93.90
26954;DHT22;14508;50.924;11.600;2022-08-21T10:05:50;22.80;93.70
26954;DHT22;14508;50.924;11.600;2022-08-21T10:08:19;22.90;93.40
26954;DHT22;14508;50.924;11.600;2022-08-21T10:10:50;23.00;92.80
26954;DHT22;14508;50.924;11.600;2022-08-21T10:13:21;23.10;92.70
26954;DHT22;14508;50.924;11.600;2022-08-21T10:15:56;23.20;93.00
26954;DHT22;14508;50.924;11.600;2022-08-21T10:18:29;23.30;92.90
26954;DHT22;14508;50.924;11.600;2022-08-21T10:21:04;23.50;92.40
26954;DHT22;14508;50.924;11.600;2022-08-21T10:23:42;23.60;90.10
26954;DHT22;14508;50.924;11.600;2022-08-21T10:26:20;23.70;87.30
26954;DHT22;14508;50.924;11.600;2022-08-21T10:28:55;23.80;86.80
26954;DHT22;14508;50.924;11.600;2022-08-21T10:31:32;23.90;87.10
26954;DHT22;14508;50.924;11.600;2022-08-21T10:34:13;23.90;86.50
26954;DHT22;14508;50.924;11.600;2022-08-21T10:36:48;23.80;85.00
26954;DHT22;14508;50.924;11.600;2022-08-21T10:39:20;23.70;80.80
26954;DHT22;14508;50.924;11.600;2022-08-21T10:42:06;23.80;80.60
26954;DHT22;14508;50.924;11.600;2022-08-21T10:44:41;23.80;78.90
26954;DHT22;14508;50.924;11.600;2022-08-21T10:47:17;23.80;79.20
26954;DHT22;14508;50.924;11.600;2022-08-21T10:49:50;23.80;78.10
26954;DHT22;14508;50.924;11.600;2022-08-21T10:52:31;23.80;78.00
26954;DHT22;14508;50.924;11.600;2022-08-21T10:55:06;23.80;76.80
26954;DHT22;14508;50.924;11.600;2022-08-21T10:57:40;23.90;76.80
26954;DHT22;14508;50.924;11.600;2022-08-21T11:00:11;24.10;76.50
26954;DHT22;14508;50.924;11.600;2022-08-21T11:02:44;24.30;75.90
26954;DHT22;14508;50.924;11.600;2022-08-21T11:05:13;24.40;74.50
26954;DHT22;14508;50.924;11.600;2022-08-21T11:07:48;24.60;74.50
26954;DHT22;14508;50.924;11.600;2022-08-21T11:10:21;24.60;73.10
26954;DHT22;14508;50.924;11.600;2022-08-21T11:12:52;24.60;73.50
26954;DHT22;14508;50.924;11.600;2022-08-21T11:15:34;24.40;72.70
26954;DHT22;14508;50.924;11.600;2022-08-21T11:18:12;24.30;71.10
26954;DHT22;14508;50.924;11.600;2022-08-21T11:20:45;24.20;72.40
26954;DHT22;14508;50.924;11.600;2022-08-21T11:23:18;24.20;72.80
26954;DHT22;14508;50.924;11.600;2022-08-21T11:25:52;24.30;72.30
26954;DHT22;14508;50.924;11.600;2022-08-21T11:28:24;24.50;71.80
26954;DHT22;14508;50.924;11.600;2022-08-21T11:31:05;24.50;70.80
26954;DHT22;14508;50.924;11.600;2022-08-21T11:33:54;24.60;71.00
26954;DHT22;14508;50.924;11.600;2022-08-21T11:36:30;24.80;67.30
26954;DHT22;14508;50.924;11.600;2022-08-21T11:39:08;24.80;66.30
26954;DHT22;14508;50.924;11.600;2022-08-21T11:41:40;24.80;66.00
26954;DHT22;14508;50.924;11.600;2022-08-21T11:44:14;24.90;66.50
26954;DHT22;14508;50.924;11.600;2022-08-21T11:46:48;25.10;66.00
26954;DHT22;14508;50.924;11.600;2022-08-21T11:49:30;25.30;65.20
26954;DHT22;14508;50.924;11.600;2022-08-21T11:52:07;25.60;64.30
26954;DHT22;14508;50.924;11.600;2022-08-21T11:54:42;25.90;62.40
26954;DHT22;14508;50.924;11.600;2022-08-21T11:57:17;26.10;61.00
26954;DHT22;14508;50.924;11.600;2022-08-21T11:59:48;26.10;59.40
26954;DHT22;14508;50.924;11.600;2022-08-21T12:02:19;26.10;58.10
26954;DHT22;14508;50.924;11.600;2022-08-21T12:04:49;26.10;58.40
26954;DHT22;14508;50.924;11.600;2022-08-21T12:07:29;26.10;57.90
26954;DHT22;14508;50.924;11.600;2022-08-21T12:09:58;26.00;57.90
26954;DHT22;14508;50.924;11.600;2022-08-21T12:12:27;26.00;57.60
26954;DHT22;14508;50.924;11.600;2022-08-21T12:15:23;25.90;57.10
26954;DHT22;14508;50.924;11.600;2022-08-21T12:17:57;25.70;57.30
26954;DHT22;14508;50.924;11.600;2022-08-21T12:20:39;25.60;56.40
26954;DHT22;14508;50.924;11.600;2022-08-21T12:23:17;25.40;56.40
26954;DHT22;14508;50.924;11.600;2022-08-21T12:25:58;25.40;57.30
26954;DHT22;14508;50.924;11.600;2022-08-21T12:28:26;25.40;57.70
26954;DHT22;14508;50.924;11.600;2022-08-21T12:30:53;25.50;57.60
26954;DHT22;14508;50.924;11.600;2022-08-21T12:33:24;25.50;58.10
26954;DHT22;14508;50.924;11.600;2022-08-21T12:36:01;25.40;57.70
26954;DHT22;14508;50.924;11.600;2022-08-21T12:38:29;25.20;57.40
26954;DHT22;14508;50.924;11.600;2022-08-21T12:41:03;25.10;56.90
26954;DHT22;14508;50.924;11.600;2022-08-21T12:43:34;25.00;57.10
26954;DHT22;14508;50.924;11.600;2022-08-21T12:46:02;25.00;56.70
26954;DHT22;14508;50.924;11.600;2022-08-21T12:48:35;25.20;56.90
26954;DHT22;14508;50.924;11.600;2022-08-21T12:51:07;25.30;56.50
26954;DHT22;14508;50.924;11.600;2022-08-21T12:53:44;25.40;56.30
26954;DHT22;14508;50.924;11.600;2022-08-21T12:56:15;25.60;56.20
26954;DHT22;14508;50.924;11.600;2022-08-21T12:58:45;25.80;55.90
26954;DHT22;14508;50.924;11.600;2022-08-21T13:01:19;25.90;55.40
26954;DHT22;14508;50.924;11.600;2022-08-21T13:03:50;26.10;55.10
26954;DHT22;14508;50.924;11.600;2022-08-21T13:06:18;26.40;54.50
26954;DHT22;14508;50.924;11.600;2022-08-21T13:08:48;26.60;54.30
26954;DHT22;14508;50.924;11.600;2022-08-21T13:11:20;26.70;53.90
26954;DHT22;14508;50.924;11.600;2022-08-21T13:13:49;26.90;53.20
26954;DHT22;14508;50.924;11.600;2022-08-21T13:16:20;27.00;52.60
26954;DHT22;14508;50.924;11.600;2022-08-21T13:18:55;26.90;52.70
26954;DHT22;14508;50.924;11.600;2022-08-21T13:21:28;27.00;51.70
26954;DHT22;14508;50.924;11.600;2022-08-21T13:24:11;26.90;51.60
26954;DHT22;14508;50.924;11.600;2022-08-21T13:26:41;26.90;51.80
26954;DHT22;14508;50.924;11.600;2022-08-21T13:29:10;26.80;51.70
26954;DHT22;14508;50.924;11.600;2022-08-21T13:31:39;26.80;52.10
26954;DHT22;14508;50.924;11.600;2022-08-21T13:34:08;26.90;51.90
26954;DHT22;14508;50.924;11.600;2022-08-21T13:36:39;27.00;51.50
26954;DHT22;14508;50.924;11.600;2022-08-21T13:39:08;27.00;51.20
26954;DHT22;14508;50.924;11.600;2022-08-21T13:41:38;27.10;51.20
26954;DHT22;14508;50.924;11.600;2022-08-21T13:44:19;27.20;51.10
26954;DHT22;14508;50.924;11.600;2022-08-21T13:46:47;27.30;50.30
26954;DHT22;14508;50.924;11.600;2022-08-21T13:49:17;27.40;49.90
26954;DHT22;14508;50.924;11.600;2022-08-21T13:51:45;27.40;49.30
26954;DHT22;14508;50.924;11.600;2022-08-21T13:54:22;27.40;49.90
26954;DHT22;14508;50.924;11.600;2022-08-21T13:56:49;27.30;49.90
26954;DHT22;14508;50.924;11.600;2022-08-21T13:59:26;27.10;49.30
26954;DHT22;14508;50.924;11.600;2022-08-21T14:01:56;26.90;49.70
26954;DHT22;14508;50.924;11.600;2022-08-21T14:04:32;26.80;49.90
26954;DHT22;14508;50.924;11.600;2022-08-21T14:07:00;26.60;50.30
26954;DHT22;14508;50.924;11.600;2022-08-21T14:09:31;26.50;50.60
26954;DHT22;14508;50.924;11.600;2022-08-21T14:12:00;26.40;50.40
26954;DHT22;14508;50.924;11.600;2022-08-21T14:14:31;26.30;50.70
26954;DHT22;14508;50.924;11.600;2022-08-21T14:17:00;26.10;50.30
26954;DHT22;14508;50.924;11.600;2022-08-21T14:19:36;26.00;50.60
26954;DHT22;14508;50.924;11.600;2022-08-21T14:22:22;26.10;50.80
26954;DHT22;14508;50.924;11.600;2022-08-21T14:24:49;26.20;50.20
26954;DHT22;14508;50.924;11.600;2022-08-21T14:27:24;26.10;50.40
26954;DHT22;14508;50.924;11.600;2022-08-21T14:29:58;26.10;50.00
26954;DHT22;14508;50.924;11.600;2022-08-21T14:32:28;26.10;49.40
26954;DHT22;14508;50.924;11.600;2022-08-21T14:34:55;26.10;49.20
26954;DHT22;14508;50.924;11.600;2022-08-21T14:37:23;26.20;49.40
26954;DHT22;14508;50.924;11.600;2022-08-21T14:39:51;26.30;49.50
26954;DHT22;14508;50.924;11.600;2022-08-21T14:42:17;26.40;49.30
26954;DHT22;14508;50.924;11.600;2022-08-21T14:44:44;26.50;49.40
26954;DHT22;14508;50.924;11.600;2022-08-21T14:47:12;26.60;49.80
26954;DHT22;14508;50.924;11.600;2022-08-21T14:49:39;26.60;49.40
26954;DHT22;14508;50.924;11.600;2022-08-21T14:52:06;26.50;49.20
26954;DHT22;14508;50.924;11.600;2022-08-21T14:54:33;26.60;49.30
26954;DHT22;14508;50.924;11.600;2022-08-21T14:57:04;26.60;49.40
26954;DHT22;14508;50.924;11.600;2022-08-21T14:59:31;26.60;49.00
26954;DHT22;14508;50.924;11.600;2022-08-21T15:01:59;26.50;49.30
26954;DHT22;14508;50.924;11.600;2022-08-21T15:04:27;26.50;49.60
26954;DHT22;14508;50.924;11.600;2022-08-21T15:06:54;26.60;50.00
26954;DHT22;14508;50.924;11.600;2022-08-21T15:09:20;26.60;49.40
26954;DHT22;14508;50.924;11.600;2022-08-21T15:11:47;26.60;49.30
26954;DHT22;14508;50.924;11.600;2022-08-21T15:14:18;26.70;49.30
26954;DHT22;14508;50.924;11.600;2022-08-21T15:16:46;26.80;49.20
26954;DHT22;14508;50.924;11.600;2022-08-21T15:19:13;26.80;49.10
26954;DHT22;14508;50.924;11.600;2022-08-21T15:21:41;26.80;49.10
26954;DHT22;14508;50.924;11.600;2022-08-21T15:24:10;26.80;48.80
26954;DHT22;14508;50.924;11.600;2022-08-21T15:26:37;26.80;48.90
26954;DHT22;14508;50.924;11.600;2022-08-21T15:29:06;26.70;48.30
26954;DHT22;14508;50.924;11.600;2022-08-21T15:31:33;26.70;48.50
26954;DHT22;14508;50.924;11.600;2022-08-21T15:34:00;26.70;48.50
26954;DHT22;14508;50.924;11.600;2022-08-21T15:36:27;26.70;48.10